Time;durP1;ratioP1;P1;durP2;ratioP2;P2;SDS_P1;SDS_P2;PMS_P1;PMS_P2;Temp;Humidity;BMP_temperature;BMP_pressure;BME280_temperature;BME280_humidity;BME280_pressure;Samples;Min_cycle;Max_cycle;Signal;HPM_P1;HPM_P2
2022/05/28 00:01:23;;;;;;;3.67;2.17;;;;;;;14.44;71.49;98489.19;5052878;28;20212;-70
2022/05/28 00:03:51;;;;;;;4.67;2.40;;;;;;;14.34;71.81;98487.06;5055849;28;20216;-70
2022/05/28 00:06:23;;;;;;;6.53;2.40;;;;;;;14.32;74.70;98489.19;5056141;28;20216;-69
2022/05/28 00:08:49;;;;;;;6.90;2.40;;;;;;;14.24;77.26;98480.69;5057042;28;20236;-70
2022/05/28 00:11:25;;;;;;;7.37;2.63;;;;;;;14.10;79.62;98484.56;5056458;28;20296;-70
2022/05/28 00:13:53;;;;;;;7.17;3.00;;;;;;;13.99;82.50;98482.72;5056041;28;20196;-69
2022/05/28 00:16:21;;;;;;;8.10;2.60;;;;;;;14.05;78.03;98485.28;5056002;28;20216;-70
2022/05/28 00:18:49;;;;;;;4.67;2.57;;;;;;;14.03;81.30;98489.22;5055933;28;20236;-69
2022/05/28 00:21:16;;;;;;;4.80;2.60;;;;;;;13.94;82.18;98496.78;5055903;28;20205;-70
2022/05/28 00:23:44;;;;;;;7.50;2.97;;;;;;;13.85;82.84;98508.00;5055874;28;20664;-70
2022/05/28 00:26:11;;;;;;;7.27;2.70;;;;;;;13.95;78.05;98519.78;5055782;28;20574;-69
2022/05/28 00:28:39;;;;;;;5.03;2.90;;;;;;;13.86;78.62;98510.47;5056069;28;20232;-69
2022/05/28 00:31:06;;;;;;;6.87;2.97;;;;;;;13.90;78.47;98514.31;5056091;28;20208;-69
2022/05/28 00:33:33;;;;;;;5.43;3.00;;;;;;;13.85;81.04;98513.34;5056053;28;20212;-69
2022/05/28 00:36:00;;;;;;;5.67;2.73;;;;;;;13.54;85.49;98506.41;5055514;28;20231;-69
2022/05/28 00:38:28;;;;;;;5.53;3.30;;;;;;;13.52;82.85;98505.00;5055865;28;20256;-69
2022/05/28 00:40:58;;;;;;;4.83;2.97;;;;;;;13.34;88.35;98511.19;5055635;28;20228;-69
2022/05/28 00:43:26;;;;;;;6.13;3.10;;;;;;;13.40;83.61;98509.47;5055843;28;20242;-69
2022/05/28 00:46:00;;;;;;;5.80;2.83;;;;;;;13.32;82.53;98513.28;5055768;28;20231;-69
2022/05/28 00:48:31;;;;;;;6.37;2.70;;;;;;;13.25;83.35;98514.41;5055311;28;20240;-70
2022/05/28 00:51:04;;;;;;;9.90;3.10;;;;;;;13.18;86.91;98517.16;5055738;28;20197;-69
2022/05/28 00:53:31;;;;;;;6.63;3.20;;;;;;;13.11;86.11;98507.59;5055372;28;20186;-70
2022/05/28 00:55:57;;;;;;;6.40;2.97;;;;;;;13.16;85.64;98513.09;5055530;28;20242;-69
2022/05/28 00:58:24;;;;;;;10.17;3.30;;;;;;;13.20;86.53;98512.41;5055506;28;20235;-69
2022/05/28 01:00:50;;;;;;;7.17;3.13;;;;;;;13.15;88.05;98517.59;5055197;28;20698;-69
2022/05/28 01:03:33;;;;;;;9.03;3.10;;;;;;;13.21;82.68;98518.56;5055467;28;20207;-69
2022/05/28 01:06:05;;;;;;;8.27;3.10;;;;;;;13.23;84.34;98503.94;5055410;28;20197;-69
2022/05/28 01:08:38;;;;;;;9.90;3.40;;;;;;;13.30;83.41;98504.66;5055362;28;20232;-69
2022/05/28 01:11:30;;;;;;;8.57;3.07;;;;;;;13.32;80.85;98502.59;5055059;28;20711;-69
2022/05/28 01:14:15;;;;;;;8.27;2.80;;;;;;;13.21;83.76;98508.69;5054600;28;20218;-69
2022/05/28 01:16:46;;;;;;;4.63;3.03;;;;;;;13.15;84.13;98506.91;5037663;28;20199;-69
2022/05/28 01:19:36;;;;;;;8.10;3.00;;;;;;;13.15;82.27;98498.09;5055138;28;20235;-69
2022/05/28 01:22:13;;;;;;;6.87;2.80;;;;;;;13.16;80.13;98503.19;5053960;28;20206;-69
2022/05/28 01:24:55;;;;;;;6.47;3.03;;;;;;;13.21;79.46;98500.66;5036320;28;20290;-69
2022/05/28 01:27:35;;;;;;;8.63;3.17;;;;;;;13.14;77.54;98505.28;5054369;28;20199;-69
2022/05/28 01:30:07;;;;;;;8.27;2.90;;;;;;;13.06;79.61;98502.91;5054319;28;20203;-69
2022/05/28 01:32:35;;;;;;;6.60;2.73;;;;;;;12.98;77.19;98507.75;5053933;28;20200;-69
2022/05/28 01:35:07;;;;;;;6.27;2.40;;;;;;;13.06;73.23;98505.59;5054036;28;20257;-69
2022/05/28 01:37:34;;;;;;;5.60;2.50;;;;;;;12.95;76.36;98498.31;5053448;28;20223;-69
2022/05/28 01:40:02;;;;;;;7.57;2.87;;;;;;;12.86;78.91;98499.66;5053988;28;20207;-70
2022/05/28 01:42:31;;;;;;;6.93;2.63;;;;;;;12.93;73.89;98495.03;5054295;28;20213;-69
2022/05/28 01:44:59;;;;;;;7.23;2.70;;;;;;;12.87;77.91;98500.44;5054723;28;20212;-69
2022/05/28 01:47:26;;;;;;;6.97;2.70;;;;;;;12.89;75.45;98503.72;5054333;28;20555;-69
2022/05/28 01:49:53;;;;;;;7.43;2.57;;;;;;;12.88;74.00;98505.56;5054298;28;20633;-69
2022/05/28 01:52:21;;;;;;;7.83;2.70;;;;;;;12.75;74.21;98503.03;5036875;28;20206;-69
2022/05/28 01:54:50;;;;;;;9.73;2.70;;;;;;;12.70;73.62;98510.88;5054485;28;20224;-70
2022/05/28 01:57:17;;;;;;;9.73;2.80;;;;;;;12.65;71.23;98501.91;5036478;28;20211;-69
2022/05/28 01:59:44;;;;;;;8.07;2.83;;;;;;;12.78;67.57;98499.09;5036844;28;20202;-69
2022/05/28 02:02:13;;;;;;;8.40;2.63;;;;;;;12.66;68.96;98503.56;5054012;28;20218;-69
2022/05/28 02:04:43;;;;;;;6.23;2.27;;;;;;;12.71;66.91;98501.84;5054221;28;20229;-69
2022/05/28 02:07:10;;;;;;;9.73;2.07;;;;;;;12.53;65.59;98504.50;5054219;28;20212;-69
2022/05/28 02:09:41;;;;;;;13.43;2.93;;;;;;;12.62;65.00;98505.03;5054248;28;20216;-69
2022/05/28 02:12:23;;;;;;;8.00;2.30;;;;;;;12.47;67.67;98508.03;5054210;28;20202;-69
2022/05/28 02:15:11;;;;;;;11.03;2.70;;;;;;;12.39;67.88;98497.66;5054081;28;20294;-69
2022/05/28 02:17:46;;;;;;;11.27;2.43;;;;;;;12.31;68.36;98500.63;5054072;28;20232;-69
2022/05/28 02:20:20;;;;;;;7.63;2.27;;;;;;;12.21;67.35;98486.94;5053616;28;20205;-69
2022/05/28 02:22:54;;;;;;;6.50;2.50;;;;;;;12.30;68.94;98490.97;5036367;28;20189;-69
2022/05/28 02:25:37;;;;;;;10.23;2.90;;;;;;;12.28;67.48;98485.06;5053054;28;20663;-70
2022/05/28 02:28:06;;;;;;;10.37;2.50;;;;;;;12.18;68.27;98497.25;5053557;28;20228;-69
2022/05/28 02:30:33;;;;;;;6.63;2.47;;;;;;;12.31;65.57;98494.47;5053851;28;20294;-69
2022/05/28 02:33:07;;;;;;;7.63;2.83;;;;;;;12.12;67.08;98482.94;5053843;28;20296;-69
2022/05/28 02:35:33;;;;;;;8.90;2.43;;;;;;;12.15;65.59;98481.66;5053422;28;20551;-70
2022/05/28 02:38:00;;;;;;;7.47;2.40;;;;;;;12.06;65.86;98483.81;5053691;28;20286;-70
2022/05/28 02:40:26;;;;;;;7.87;2.27;;;;;;;12.08;66.16;98494.25;5053421;28;20672;-69
2022/05/28 02:42:53;;;;;;;7.93;2.43;;;;;;;12.07;66.79;98488.09;5053381;28;20678;-69
2022/05/28 02:45:19;;;;;;;7.37;2.20;;;;;;;12.12;66.56;98490.13;5053671;28;20201;-69
2022/05/28 02:47:46;;;;;;;6.20;2.20;;;;;;;12.14;67.83;98486.22;5053395;28;20240;-69
2022/05/28 02:50:13;;;;;;;7.10;2.30;;;;;;;12.02;68.08;98492.47;5053257;28;20200;-69
2022/05/28 02:52:41;;;;;;;8.40;2.00;;;;;;;11.93;66.73;98489.25;5053570;28;20386;-69
2022/05/28 02:55:08;;;;;;;7.37;2.23;;;;;;;11.99;66.32;98484.91;5053515;28;20225;-70
2022/05/28 02:57:35;;;;;;;7.93;2.57;;;;;;;11.97;67.02;98495.78;5053487;28;20221;-68
2022/05/28 03:00:01;;;;;;;10.43;2.47;;;;;;;11.94;66.00;98482.88;5053419;28;20217;-69
2022/05/28 03:02:29;;;;;;;7.37;2.10;;;;;;;11.81;68.16;98483.00;5053205;28;20201;-69
2022/05/28 03:04:56;;;;;;;6.97;2.30;;;;;;;11.89;67.67;98489.91;5053253;28;20205;-69
2022/05/28 03:07:23;;;;;;;7.80;2.27;;;;;;;11.72;67.41;98481.63;5053045;28;20213;-69
2022/05/28 03:09:49;;;;;;;7.33;2.57;;;;;;;11.74;68.27;98497.38;5052919;28;20690;-69
2022/05/28 03:12:15;;;;;;;11.07;2.57;;;;;;;11.79;65.17;98492.22;5053251;28;20205;-69
2022/05/28 03:14:42;;;;;;;7.50;2.40;;;;;;;11.62;67.25;98489.25;5053009;28;20209;-69
2022/05/28 03:17:08;;;;;;;4.73;2.10;;;;;;;11.71;65.39;98497.81;5053160;28;20208;-69
2022/05/28 03:19:34;;;;;;;10.20;2.40;;;;;;;11.56;66.53;98498.06;5053671;28;20205;-70
2022/05/28 03:22:01;;;;;;;6.87;2.17;;;;;;;11.55;65.37;98501.78;5052675;28;20208;-70
2022/05/28 03:24:27;;;;;;;6.10;2.07;;;;;;;11.46;66.52;98502.22;5052941;28;20205;-70
2022/05/28 03:26:57;;;;;;;8.30;2.30;;;;;;;11.42;65.23;98495.69;5053257;28;20197;-70
2022/05/28 03:29:25;;;;;;;7.77;2.13;;;;;;;11.49;65.09;98496.50;5053100;28;20225;-70
2022/05/28 03:31:52;;;;;;;8.37;2.30;;;;;;;11.44;65.49;98494.44;5053033;28;20205;-70
2022/05/28 03:34:18;;;;;;;8.23;2.03;;;;;;;11.50;65.72;98498.94;5052829;28;20296;-70
2022/05/28 03:36:45;;;;;;;10.10;2.53;;;;;;;11.43;66.16;98492.81;5053831;28;20593;-70
2022/05/28 03:39:11;;;;;;;8.00;2.20;;;;;;;11.29;66.14;98501.91;5056883;28;20232;-70
2022/05/28 03:41:37;;;;;;;8.07;2.30;;;;;;;11.45;64.64;98504.09;5057013;28;20213;-70
2022/05/28 03:44:04;;;;;;;5.73;2.10;;;;;;;11.43;64.93;98508.81;5056875;28;20216;-69
2022/05/28 03:46:33;;;;;;;7.10;2.30;;;;;;;11.28;65.94;98518.91;5056591;28;20201;-70
2022/05/28 03:49:04;;;;;;;7.83;2.23;;;;;;;11.27;65.36;98509.31;5056310;28;20244;-70
2022/05/28 03:51:31;;;;;;;9.67;2.50;;;;;;;11.32;64.46;98507.63;5056409;28;20196;-70
2022/05/28 03:53:57;;;;;;;7.67;2.10;;;;;;;11.28;64.85;98510.94;5056472;28;20296;-70
2022/05/28 03:56:29;;;;;;;7.00;2.07;;;;;;;11.18;65.77;98514.03;5056703;28;20232;-70
2022/05/28 03:58:55;;;;;;;8.50;2.10;;;;;;;11.18;66.36;98503.38;5023061;28;20229;-69
2022/05/28 04:01:22;;;;;;;4.43;1.80;;;;;;;11.16;65.97;98522.47;5056590;28;20291;-70
2022/05/28 04:03:48;;;;;;;7.77;2.00;;;;;;;11.21;66.53;98520.78;5056613;28;20201;-70
2022/05/28 04:06:14;;;;;;;6.70;2.40;;;;;;;11.04;67.31;98520.44;5056594;28;20202;-70
2022/05/28 04:08:41;;;;;;;3.17;2.07;;;;;;;11.07;67.29;98529.84;5056258;28;20233;-70
2022/05/28 04:11:08;;;;;;;8.57;2.30;;;;;;;11.07;67.35;98521.88;5056041;28;20211;-70
2022/05/28 04:13:34;;;;;;;9.60;2.47;;;;;;;11.18;65.58;98514.03;5056238;28;20212;-70
2022/05/28 04:16:01;;;;;;;7.77;2.27;;;;;;;11.17;66.39;98519.56;5056145;28;20299;-69
2022/05/28 04:18:27;;;;;;;7.73;2.57;;;;;;;11.10;66.87;98524.13;5056086;28;20236;-69
2022/05/28 04:20:54;;;;;;;7.60;2.30;;;;;;;11.27;66.19;98518.09;5055859;28;20211;-70
2022/05/28 04:23:20;;;;;;;7.03;2.20;;;;;;;11.00;66.27;98529.06;5055866;28;20232;-69
2022/05/28 04:25:46;;;;;;;7.80;1.80;;;;;;;11.20;65.74;98540.44;5055129;28;20201;-70
2022/05/28 04:28:13;;;;;;;7.73;2.13;;;;;;;11.00;67.91;98540.50;5054589;28;20226;-70
2022/05/28 04:30:39;;;;;;;8.73;2.03;;;;;;;11.03;66.37;98544.59;5054852;28;20211;-69
2022/05/28 04:33:06;;;;;;;9.77;2.33;;;;;;;11.07;65.10;98543.97;5054520;28;20664;-70
2022/05/28 04:35:32;;;;;;;8.60;2.70;;;;;;;11.04;65.30;98546.25;5054809;28;20232;-70
2022/05/28 04:37:58;;;;;;;5.93;2.20;;;;;;;11.07;65.71;98545.81;5055692;28;20225;-70
2022/05/28 04:40:25;;;;;;;6.30;1.90;;;;;;;10.95;66.72;98550.16;5055409;28;20228;-70
2022/05/28 04:42:51;;;;;;;5.90;2.10;;;;;;;11.19;64.16;98538.81;5055776;28;20218;-69
2022/05/28 04:45:18;;;;;;;7.00;2.20;;;;;;;11.22;64.41;98550.88;5056468;28;20287;-70
2022/05/28 04:47:44;;;;;;;8.90;2.30;;;;;;;11.28;65.23;98559.66;5055351;28;20236;-70
2022/05/28 04:50:11;;;;;;;7.87;2.10;;;;;;;11.25;64.10;98559.25;5055119;28;20205;-70
2022/05/28 04:52:38;;;;;;;7.43;2.20;;;;;;;11.34;64.37;98559.84;5055606;28;20205;-70
2022/05/28 04:55:07;;;;;;;9.37;2.50;;;;;;;11.33;65.45;98559.03;5056303;28;20210;-70
2022/05/28 04:57:34;;;;;;;7.57;2.27;;;;;;;11.30;65.75;98562.09;5055475;28;20221;-70
2022/05/28 05:00:00;;;;;;;8.83;2.10;;;;;;;11.51;64.85;98561.81;5055341;28;20205;-70
2022/05/28 05:02:27;;;;;;;6.77;2.23;;;;;;;11.65;63.86;98563.41;5055409;28;20209;-69
2022/05/28 05:04:59;;;;;;;8.27;2.47;;;;;;;12.07;62.05;98567.25;5055873;28;20533;-70
2022/05/28 05:07:26;;;;;;;7.17;2.37;;;;;;;12.39;61.24;98564.31;5055129;28;20201;-70
2022/05/28 05:09:52;;;;;;;9.17;2.27;;;;;;;12.36;62.38;98553.28;5055099;28;20209;-70
2022/05/28 05:12:19;;;;;;;6.57;2.03;;;;;;;12.23;62.23;98564.88;5054843;28;20209;-70
2022/05/28 05:14:45;;;;;;;9.03;2.40;;;;;;;12.59;60.64;98562.31;5055115;28;20209;-69
2022/05/28 05:17:11;;;;;;;7.40;2.10;;;;;;;12.39;62.33;98574.19;5054769;28;20254;-70
2022/05/28 05:19:38;;;;;;;4.30;1.90;;;;;;;12.38;61.29;98568.03;5056001;28;20206;-70
2022/05/28 05:22:04;;;;;;;7.77;2.30;;;;;;;12.44;60.87;98575.13;5054820;28;20301;-70
2022/05/28 05:24:33;;;;;;;9.90;2.40;;;;;;;12.30;60.92;98573.63;5054830;28;20213;-70
2022/05/28 05:26:59;;;;;;;6.87;2.30;;;;;;;12.53;62.75;98575.69;5054815;28;20255;-70
2022/05/28 05:29:26;;;;;;;9.40;2.60;;;;;;;12.52;63.01;98563.41;5054681;28;20252;-70
2022/05/28 05:31:52;;;;;;;6.90;2.23;;;;;;;12.41;61.18;98564.94;5054705;28;20202;-69
2022/05/28 05:34:18;;;;;;;8.43;2.20;;;;;;;12.08;62.44;98584.88;5054834;28;20216;-70
2022/05/28 05:36:45;;;;;;;7.00;2.40;;;;;;;12.08;62.28;98585.66;5055229;28;20221;-70
2022/05/28 05:39:11;;;;;;;8.13;2.20;;;;;;;12.14;62.70;98579.50;5054537;28;20226;-70
2022/05/28 05:41:42;;;;;;;6.77;2.33;;;;;;;12.41;61.55;98578.25;5054652;28;20201;-70
2022/05/28 05:44:10;;;;;;;6.57;2.63;;;;;;;12.33;62.99;98580.38;5054218;28;20210;-70
2022/05/28 05:46:39;;;;;;;8.77;2.47;;;;;;;12.46;63.08;98566.94;5054609;28;20296;-69
2022/05/28 05:49:06;;;;;;;6.67;2.43;;;;;;;12.66;60.25;98571.06;5054016;28;20287;-69
2022/05/28 05:51:33;;;;;;;7.13;2.07;;;;;;;12.71;60.58;98554.41;5053950;28;20687;-70
2022/05/28 05:53:59;;;;;;;9.20;2.70;;;;;;;12.62;60.60;98569.06;5053996;28;20642;-70
2022/05/28 05:56:25;;;;;;;6.97;2.13;;;;;;;12.30;60.57;98575.50;5053943;28;20233;-69
2022/05/28 05:58:52;;;;;;;10.47;2.80;;;;;;;12.27;61.58;98570.56;5053982;28;20238;-70
2022/05/28 06:01:18;;;;;;;7.30;2.23;;;;;;;12.63;60.64;98574.19;5052951;28;20216;-70
2022/05/28 06:03:45;;;;;;;5.77;2.00;;;;;;;12.48;61.25;98583.53;5054062;28;20218;-70
2022/05/28 06:06:14;;;;;;;6.83;2.47;;;;;;;12.98;58.93;98571.81;5054115;28;20205;-70
2022/05/28 06:08:41;;;;;;;6.27;2.20;;;;;;;13.28;59.11;98578.03;5054028;28;20231;-69
2022/05/28 06:11:07;;;;;;;8.00;2.20;;;;;;;13.11;58.90;98580.47;5054082;28;20228;-70
2022/05/28 06:13:35;;;;;;;8.30;2.20;;;;;;;12.84;56.97;98578.28;5054106;28;20215;-70
2022/05/28 06:16:02;;;;;;;5.53;1.70;;;;;;;12.78;58.21;98573.81;5054009;28;20236;-69
2022/05/28 06:18:29;;;;;;;6.03;1.93;;;;;;;12.93;58.40;98574.28;5053640;28;20730;-70
2022/05/28 06:20:56;;;;;;;6.37;2.03;;;;;;;13.02;54.31;98587.16;5053922;28;20206;-69
2022/05/28 06:23:22;;;;;;;5.57;1.63;;;;;;;12.88;54.10;98576.81;5053928;28;20231;-69
2022/05/28 06:25:49;;;;;;;3.57;1.50;;;;;;;13.06;54.77;98571.53;5053567;28;20214;-69
2022/05/28 06:28:16;;;;;;;7.93;2.00;;;;;;;12.88;54.71;98571.47;5053669;28;20221;-69
2022/05/28 06:30:44;;;;;;;3.87;1.50;;;;;;;13.05;55.21;98581.38;5053683;28;20235;-70
2022/05/28 06:33:11;;;;;;;4.33;1.33;;;;;;;12.95;51.21;98569.53;5053629;28;20267;-68
2022/05/28 06:35:38;;;;;;;6.90;1.40;;;;;;;12.68;52.28;98577.00;5053450;28;20231;-69
2022/05/28 06:38:05;;;;;;;4.80;1.37;;;;;;;12.93;54.50;98575.09;5053435;28;20232;-69
2022/05/28 06:40:32;;;;;;;3.57;1.73;;;;;;;13.08;54.66;98583.59;5053633;28;20211;-69
2022/05/28 06:42:58;;;;;;;6.83;1.80;;;;;;;13.09;52.05;98587.91;5053168;28;20209;-70
2022/05/28 06:45:25;;;;;;;5.07;1.50;;;;;;;13.22;54.83;98582.44;5052990;28;20695;-70
2022/05/28 06:47:52;;;;;;;6.13;1.97;;;;;;;13.51;52.85;98586.16;5053251;28;20256;-69
2022/05/28 06:53:16;;;;;;;6.20;1.70;;;;;;;13.08;54.53;98583.59;4991861;28;20197;-70
2022/05/28 06:55:43;;;;;;;4.00;1.63;;;;;;;13.36;54.06;98581.22;5037650;28;20213;-69
2022/05/28 06:58:09;;;;;;;5.27;2.07;;;;;;;13.35;52.85;98586.78;5053196;28;20230;-70
2022/05/28 07:00:36;;;;;;;5.33;2.07;;;;;;;13.75;51.93;98586.06;5053075;28;20207;-70
2022/05/28 07:03:04;;;;;;;4.50;1.73;;;;;;;13.59;51.58;98594.72;5053087;28;20212;-69
2022/05/28 07:05:31;;;;;;;4.77;2.00;;;;;;;12.83;53.16;98582.78;5053170;28;20228;-69
2022/05/28 07:07:58;;;;;;;4.43;1.53;;;;;;;13.35;54.31;98595.63;5053059;28;20272;-70
2022/05/28 07:10:24;;;;;;;6.20;1.53;;;;;;;13.39;52.67;98591.44;5053161;28;20206;-69
2022/05/28 07:12:51;;;;;;;3.97;1.50;;;;;;;13.54;53.59;98586.56;5056417;28;20206;-70
2022/05/28 07:15:17;;;;;;;3.43;1.73;;;;;;;13.47;51.20;98590.34;5057348;28;20294;-70
2022/05/28 07:17:44;;;;;;;5.60;1.50;;;;;;;13.76;52.56;98584.22;5057003;28;20236;-70
2022/05/28 07:20:11;;;;;;;5.57;1.80;;;;;;;13.67;52.48;98586.38;5056917;28;20613;-70
2022/05/28 07:22:38;;;;;;;5.30;1.87;;;;;;;13.52;51.18;98588.63;5056740;28;20686;-70
2022/05/28 07:25:05;;;;;;;2.80;1.40;;;;;;;13.34;51.32;98585.97;5056775;28;20269;-70
2022/05/28 07:27:32;;;;;;;6.07;1.57;;;;;;;13.73;52.38;98584.66;5056546;28;20749;-69
2022/05/28 07:29:58;;;;;;;4.73;1.17;;;;;;;13.91;48.97;98576.59;5057029;28;20208;-69
2022/05/28 07:32:29;;;;;;;5.53;1.50;;;;;;;13.82;49.73;98575.28;5057018;28;20231;-70
2022/05/28 07:34:57;;;;;;;4.80;1.53;;;;;;;13.69;48.91;98581.63;5057113;28;20270;-70
2022/05/28 07:37:24;;;;;;;4.33;1.40;;;;;;;13.16;49.85;98575.28;5056791;28;20231;-69
2022/05/28 07:39:50;;;;;;;3.60;1.30;;;;;;;13.75;49.47;98570.03;5056776;28;20212;-70
2022/05/28 07:42:16;;;;;;;5.30;1.40;;;;;;;14.08;49.58;98578.41;5056768;28;20212;-70
2022/05/28 07:44:43;;;;;;;5.43;1.50;;;;;;;13.66;50.10;98568.69;5056548;28;20229;-70
2022/05/28 07:47:09;;;;;;;5.10;1.70;;;;;;;13.67;50.41;98570.34;5056597;28;20204;-70
2022/05/28 07:49:37;;;;;;;6.83;1.50;;;;;;;14.20;51.19;98559.72;5056311;28;20217;-70
2022/05/28 07:52:04;;;;;;;6.87;1.87;;;;;;;13.90;48.28;98558.94;5056723;28;20209;-71
2022/05/28 07:54:31;;;;;;;3.80;1.47;;;;;;;14.33;48.52;98560.34;5056694;28;20205;-69
2022/05/28 07:56:58;;;;;;;2.97;1.03;;;;;;;13.85;46.08;98561.47;5056357;28;20225;-70
2022/05/28 07:59:24;;;;;;;3.73;1.07;;;;;;;13.70;47.20;98553.84;5056448;28;20228;-70
2022/05/28 08:01:51;;;;;;;3.17;1.60;;;;;;;14.08;48.92;98545.50;5056168;28;20690;-70
2022/05/28 08:04:18;;;;;;;6.03;1.60;;;;;;;14.25;49.26;98549.97;5056394;28;20297;-70
2022/05/28 08:06:44;;;;;;;5.57;1.20;;;;;;;14.17;46.20;98544.94;5056311;28;20207;-70
2022/05/28 08:09:12;;;;;;;4.27;1.30;;;;;;;14.16;46.16;98558.53;5056374;28;20261;-70
2022/05/28 08:11:39;;;;;;;3.63;1.53;;;;;;;13.97;46.54;98539.06;5055982;28;20550;-70
2022/05/28 08:14:06;;;;;;;5.30;1.30;;;;;;;13.95;48.15;98543.00;5056270;28;20201;-70
2022/05/28 08:16:33;;;;;;;3.17;1.40;;;;;;;14.48;48.60;98544.66;5056251;28;20225;-70
2022/05/28 08:19:00;;;;;;;7.77;1.50;;;;;;;14.97;50.57;98546.84;5056209;28;20612;-70
2022/05/28 08:24:10;;;;;;;4.33;1.57;;;;;;;14.12;48.84;98542.16;5054900;28;20227;-70
2022/05/28 08:26:38;;;;;;;5.30;1.70;;;;;;;14.53;49.80;98544.78;5056109;28;20208;-70
2022/05/28 08:29:05;;;;;;;4.57;1.50;;;;;;;14.45;48.52;98542.47;5055939;28;20232;-70
2022/05/28 08:31:31;;;;;;;5.53;1.83;;;;;;;14.33;49.84;98548.84;5055941;28;20205;-70
2022/05/28 08:33:58;;;;;;;4.93;1.63;;;;;;;14.73;49.88;98545.25;5055898;28;20220;-70
2022/05/28 08:36:26;;;;;;;4.73;1.47;;;;;;;14.84;50.15;98546.28;5055582;28;20229;-70
2022/05/28 08:38:52;;;;;;;3.57;1.40;;;;;;;14.86;50.03;98542.34;5055613;28;20233;-70
2022/05/28 08:41:22;;;;;;;4.83;1.53;;;;;;;14.92;49.09;98548.63;5055692;28;20224;-70
2022/05/28 08:44:00;;;;;;;3.27;1.50;;;;;;;15.36;49.13;98545.28;5056203;28;20653;-70
2022/05/28 08:46:29;;;;;;;4.33;1.80;;;;;;;14.73;48.74;98525.69;5037512;28;20189;-70
2022/05/28 08:48:57;;;;;;;5.43;1.53;;;;;;;14.83;50.51;98529.41;5055136;28;20723;-70
2022/05/28 08:51:48;;;;;;;4.40;1.50;;;;;;;14.65;51.00;98528.75;5055533;28;20209;-71
2022/05/28 08:54:27;;;;;;;7.70;2.30;;;;;;;14.78;49.81;98531.97;5055264;28;20186;-71
2022/05/28 08:56:57;;;;;;;6.73;1.70;;;;;;;14.92;48.75;98528.00;5055117;28;20213;-70
2022/05/28 08:59:32;;;;;;;5.97;1.77;;;;;;;15.17;49.70;98525.88;5055423;28;20226;-70
2022/05/28 09:01:59;;;;;;;6.27;1.70;;;;;;;15.65;48.41;98526.31;5055124;28;20658;-70
2022/05/28 09:04:32;;;;;;;5.30;1.77;;;;;;;16.13;46.93;98520.47;5055542;28;20216;-70
2022/05/28 09:07:04;;;;;;;6.03;1.70;;;;;;;15.72;46.58;98523.50;5054961;28;20197;-70
2022/05/28 09:09:44;;;;;;;5.43;1.90;;;;;;;14.90;47.81;98518.59;5055791;28;20229;-70
2022/05/28 09:12:24;;;;;;;4.03;1.37;;;;;;;14.96;48.52;98515.78;5055616;28;20189;-70
2022/05/28 09:14:50;;;;;;;6.57;1.77;;;;;;;14.93;47.82;98520.81;5054840;28;20190;-69
2022/05/28 09:17:37;;;;;;;4.07;1.50;;;;;;;14.75;47.98;98516.38;5054966;28;20228;-71
2022/05/28 09:20:09;;;;;;;5.20;1.60;;;;;;;14.88;47.97;98516.13;5055145;28;20190;-70
2022/05/28 09:22:35;;;;;;;3.63;1.50;;;;;;;14.59;47.06;98509.06;5055142;28;20193;-70
2022/05/28 09:25:01;;;;;;;4.37;1.40;;;;;;;15.27;47.41;98506.50;5055056;28;20212;-70
2022/05/28 09:27:38;;;;;;;3.83;1.20;;;;;;;15.59;44.89;98519.25;5055275;28;20232;-70
2022/05/28 09:30:29;;;;;;;3.23;1.50;;;;;;;15.57;44.82;98518.69;5036898;28;20196;-70
2022/05/28 09:33:23;;;;;;;8.13;1.63;;;;;;;15.20;47.13;98513.88;5054314;28;20637;-70
2022/05/28 09:36:01;;;;;;;3.80;1.30;;;;;;;15.79;47.66;98508.09;5054847;28;20196;-70
2022/05/28 09:38:54;;;;;;;3.57;1.60;;;;;;;15.64;45.52;98505.09;5055010;28;20240;-70
2022/05/28 09:41:35;;;;;;;3.87;1.37;;;;;;;15.91;45.38;98506.13;5054227;28;20550;-70
2022/05/28 09:44:21;;;;;;;4.83;1.60;;;;;;;16.35;46.93;98498.06;5054562;28;20189;-70
2022/05/28 09:46:47;;;;;;;5.07;1.67;;;;;;;16.73;44.12;98489.25;5054406;28;20188;-70
2022/05/28 09:49:19;;;;;;;4.13;1.43;;;;;;;16.76;44.54;98494.94;5053912;28;20232;-70
2022/05/28 09:52:00;;;;;;;3.40;1.23;;;;;;;16.66;44.06;98484.06;5054213;28;20209;-70
2022/05/28 09:54:30;;;;;;;4.03;1.70;;;;;;;15.74;43.69;98487.34;5054400;28;20205;-70
2022/05/28 09:57:01;;;;;;;3.43;1.50;;;;;;;15.36;44.66;98487.19;5054256;28;20225;-70
2022/05/28 09:59:34;;;;;;;4.17;1.20;;;;;;;15.48;44.75;98479.91;5036347;28;20321;-69
2022/05/28 10:02:16;;;;;;;3.97;1.30;;;;;;;15.93;45.03;98483.38;5054109;28;20244;-70
2022/05/28 10:05:06;;;;;;;4.00;1.37;;;;;;;16.82;45.04;98475.13;5054293;28;20293;-70
2022/05/28 10:07:35;;;;;;;2.77;1.33;;;;;;;16.91;42.35;98470.97;5054150;28;20588;-70
2022/05/28 10:10:11;;;;;;;4.20;1.43;;;;;;;15.80;44.08;98480.22;5053876;28;20296;-70
2022/05/28 10:12:38;;;;;;;2.63;1.07;;;;;;;16.30;42.58;98476.50;5054198;28;20196;-70
2022/05/28 10:15:11;;;;;;;4.57;1.40;;;;;;;16.32;44.29;98468.19;5053902;28;20205;-70
2022/05/28 10:17:40;;;;;;;3.83;1.40;;;;;;;16.00;46.20;98472.50;5053732;28;20239;-70
2022/05/28 10:20:17;;;;;;;6.03;3.00;;;;;;;16.06;44.78;98466.97;5053708;28;20564;-71
2022/05/28 10:22:45;;;;;;;5.87;1.53;;;;;;;15.91;43.77;98473.97;5053749;28;20193;-70
2022/05/28 10:25:40;;;;;;;3.50;1.40;;;;;;;15.77;44.56;98484.19;5036383;28;20201;-70
2022/05/28 10:28:07;;;;;;;4.30;1.60;;;;;;;15.84;46.02;98471.44;5053568;28;20293;-70
2022/05/28 10:30:42;;;;;;;3.60;1.60;;;;;;;15.83;46.69;98477.84;5053564;28;20209;-70
2022/05/28 10:33:14;;;;;;;3.37;1.40;;;;;;;15.94;47.29;98465.44;5053468;28;20553;-70
2022/05/28 10:35:42;;;;;;;2.97;1.30;;;;;;;16.03;44.87;98472.84;5053580;28;20198;-70
2022/05/28 10:38:08;;;;;;;3.43;1.70;;;;;;;16.07;43.04;98468.63;5053294;28;20229;-70
2022/05/28 10:40:46;;;;;;;4.83;1.60;;;;;;;15.96;44.60;98472.19;5053567;28;20227;-70
2022/05/28 10:43:34;;;;;;;3.80;1.97;;;;;;;16.20;44.45;98473.66;5053988;28;20193;-70
2022/05/28 10:46:15;;;;;;;3.90;1.43;;;;;;;16.21;43.45;98480.66;5036388;28;20196;-70
2022/05/28 10:49:07;;;;;;;4.33;1.83;;;;;;;15.72;42.01;98476.06;5053619;28;20252;-70
2022/05/28 10:51:59;;;;;;;4.03;1.43;;;;;;;16.24;42.22;98472.09;5035757;28;20211;-70
2022/05/28 10:54:45;;;;;;;2.83;1.30;;;;;;;16.71;40.42;98470.69;5053284;28;20208;-70
2022/05/28 10:57:27;;;;;;;3.30;1.50;;;;;;;16.98;40.52;98473.47;5053501;28;20302;-70
2022/05/28 11:00:11;;;;;;;3.70;1.40;;;;;;;17.09;39.38;98459.91;5053130;28;20200;-70
2022/05/28 11:02:46;;;;;;;3.50;1.30;;;;;;;16.67;40.91;98464.19;5053596;28;20632;-70
2022/05/28 11:05:37;;;;;;;5.23;1.33;;;;;;;16.63;41.82;98452.31;5052810;28;20191;-70
2022/05/28 11:08:03;;;;;;;3.60;1.33;;;;;;;16.54;42.76;98448.44;5053273;28;20232;-70
2022/05/28 11:10:42;;;;;;;2.97;1.57;;;;;;;16.59;41.76;98445.00;5052952;28;20212;-70
2022/05/28 11:13:34;;;;;;;3.33;1.20;;;;;;;16.35;43.85;98446.25;5052735;28;20640;-70
2022/05/28 11:16:16;;;;;;;4.57;1.50;;;;;;;16.37;42.98;98436.88;5015402;28;20569;-70
2022/05/28 11:19:01;;;;;;;4.30;1.50;;;;;;;15.52;42.10;98442.72;5052763;28;20233;-69
2022/05/28 11:21:50;;;;;;;2.27;1.20;;;;;;;15.79;42.72;98438.38;5052627;28;20536;-70
2022/05/28 11:24:49;;;;;;;4.80;1.33;;;;;;;16.36;41.66;98431.75;5036689;28;20185;-70
2022/05/28 11:27:25;;;;;;;1.87;1.10;;;;;;;16.97;40.18;98432.34;5052582;28;20536;-69
2022/05/28 11:30:07;;;;;;;3.23;1.33;;;;;;;16.90;40.40;98429.06;5034807;28;20659;-70
2022/05/28 11:32:50;;;;;;;3.17;1.77;;;;;;;16.73;39.88;98422.13;5052699;28;20197;-70
2022/05/28 11:35:35;;;;;;;2.60;1.23;;;;;;;16.46;40.93;98419.34;5052865;28;20200;-70
2022/05/28 11:38:21;;;;;;;4.57;1.10;;;;;;;16.84;42.13;98416.63;5052705;28;20307;-70
2022/05/28 11:41:16;;;;;;;6.73;1.90;;;;;;;16.55;39.74;98409.00;5052225;28;20201;-70
2022/05/28 11:44:24;;;;;;;5.43;1.60;;;;;;;16.81;40.03;98403.69;5052791;28;20201;-70
2022/05/28 11:47:03;;;;;;;3.70;1.20;;;;;;;16.64;38.39;98402.94;4998268;28;20232;-69
2022/05/28 11:52:47;;;;;;;5.37;1.40;;;;;;;16.77;39.37;98389.16;5052810;28;20247;-70
2022/05/28 11:55:27;;;;;;;3.73;1.20;;;;;;;16.99;40.01;98389.94;5052724;28;20190;-70
2022/05/28 11:58:00;;;;;;;3.67;1.47;;;;;;;17.38;40.55;98378.00;5053898;28;20233;-70
2022/05/28 12:00:31;;;;;;;2.27;1.23;;;;;;;17.74;39.55;98389.94;5056423;28;20190;-70